KDFW/DFW METAR and TAF weather

Enter ICAO airport designator
Station Type Date Time Source
KDFW METAR 2018/06/25 01:53 UTC NOAA

KDFW 250153Z 16014G23KT 10SM FEW065 FEW250 33/19 A2979 RMK AO2 PK WND 14027/0105 SLP077 T03280189


Station Type Date Time Source
KDFW Decoded METAR 2018/06/25 01:53 UTC NOAA

DALLAS/FT. WORTH INTERNATIONAL AIRPORT , TX, United States (KDFW) 32-54N 097-02W 174M
Jun 24, 2018 - 09:53 PM EDT / 2018.06.25 0153 UTC
Wind: from the SSE (160 degrees) at 16 MPH (14 KT) gusting to 26 MPH (23 KT):0
Visibility: 10 mile(s):0
Sky conditions: mostly clear
Temperature: 91.0 F (32.8 C)
Dew Point: 66.0 F (18.9 C)
Relative Humidity: 43%
Pressure (altimeter): 29.79 in. Hg (1008 hPa)
ob: KDFW 250153Z 16014G23KT 10SM FEW065 FEW250 33/19 A2979 RMK AO2 PK WND 14027/0105 SLP077 T03280189
cycle: 2

Station Type Date Time Source
KDFW TAF 2018/06/24 21:03 UTC NOAA

TAF
AMD KDFW 242101Z 2421/2524 17022KT P6SM FEW050 SCT250
FM251100 18019KT P6SM BKN022
FM251600 18019KT P6SM SCT035


Example: see airport list